Warning: Javascript must be enabled to use all the features on this page!


Page Loading - Please Wait...

Click to hideNews Bulletins

Peak Streamflow for the Nation

USGS 04273500 SARANAC RIVER AT PLATTSBURGH NY

Clinton County, New York
Hydrologic Unit Code 04150406
Latitude  44°40'54", Longitude  73°28'16" NAD83
Drainage area 608  square miles
Gage datum 155.40 feet above NAVD88
Output formats
Table
Graph
Tab-separated file
peakfq (watstore) format
Reselect output format
Water
Year
Date Gage
Height
(feet)
Stream-
flow
(cfs)
1928 1928-04-08 12.80 11,5005,7
1944 1944-04-25 8.33 6,5405
1945 1945-04-01 7.36 4,8005
1946 1946-03-15 7.53 5,0005
1947 1947-06-03 9.57 9,2505
1948 1948-03-28 7.28 4,7305
1949 1949-03-28 8.58 7,0905
1950 1950-04-20 7.33 4,2705
1951 1951-03-31 8.14 5,6405
1952 1952-04-06 7.48 4,5105
1953 1953-03-28 6.85 3,5605
1954 1954-04-17 8.72 6,7605
1955 1955-04-15 8.43 6,1905
1956 1956-04-30 8.77 7,2005
1957 1957-05-21 6.14 2,7805
1958 1958-04-22 7.99 5,3705
1959 1959-04-18 7.34 4,5405
1960 1960-04-15 8.96 7,6005
1961 1961-04-24 6.63 3,4405
1962 1962-04-08 6.76 3,6305
1963 1963-04-04 9.00 7,6805
1964 1964-03-06 6.89 3,8205
1965 1965-04-13 5.83 2,4105
1966 1966-03-25 6.40 3,1205
1967 1967-04-03 6.29 2,9805
1968 1968-03-24 6.90 3,8405
1969 1969-04-11 7.89 5,5005
1970 1970-04-25 7.39 4,6205
1971 1971-05-04 7.96 6,0105
1972 1972-05-05 8.33 6,6305
1973 1973-04-02 9.39 8,9105
1974 1974-04-15 7.63 5,4105
1975 1975-04-19 7.43 5,0705
1976 1976-03-28 8.33 6,7105
1977 1977-03-31 8.04 6,1605
1978 1977-10-17 8.52 7,0905
1979 1979-04-03 7.92 5,9305
1980 1979-12-26 5.72 2,5305
1981 1981-02-24 6.66 3,7605
1982 1982-04-18 9.72 9,6005
1983 1983-04-25 6.95 4,2205
1984 1983-12-14 9.32 8,4605
1985 1984-12-30 10.08 10,1005
1986 1986-03-31 7.94 5,8905
1987 1987-04-01 7.82 5,6705
1988 1988-04-29 6.45 3,4105
1989 1989-03-29 9.45 8,7305
1990 1990-03-18 8.75 7,3305
1991 1991-04-22 7.66 5,5305
1992 1992-04-23 7.73 5,6405
1993 1993-04-17 8.53 7,0305
1994 1994-04-17 8.94 7,8005
1995 1995-01-16 6.13 3,2005
1996 1995-10-22 8.90 7,7205
1997 1996-11-09 12.11 14,4005
1998 1998-04-01 10.73 11,2005
1999 1999-04-04 6.71 4,0805
2000 2000-04-09 8.21 6,3505
2001 2001-04-23 7.96 5,9405
2002 2002-06-12 7.64 5,4305
2003 2003-03-30 7.12 4,5905
2004 2004-04-02 7.49 5,2005
2005 2005-04-04 7.66 5,4605
2006 2005-10-17 6.89 4,2305
2007 2007-04-24 6.97 4,3505
2008 2008-04-12 8.27 6,4505
2009 2009-03-30 6.252 3,3005
2010 2010-03-23 7.44 5,1105
2011 2011-04-28 9.54 8,7605
2012 2012-03-16 6.25 3,3005
2013 2013-06-12 9.88 9,4305
2014 2014-04-15 9.40 8,4905
2015 2015-06-13 7.94 5,9105
2016 2016-06-06 6.53 3,6905
2017 2017-06-30 8.44 6,7405
2018 2018-04-26 8.09 6,1505
2019 2019-04-20 8.46 6,7805
2020 2020-01-12 7.45 5,1305
2021 2021-03-27 6.32 3,3405
?
  Peak Gage-Height Qualification Codes.
?
  Peak Streamflow Qualification Codes.